sensor_id;sensor_type;location;lat;lon;timestamp;pressure;altitude;pressure_sealevel;temperature;humidity
23574;BME280;11965;53.640;10.050;2023-01-26T00:01:28;102305.06;;;-1.36;100.00
23574;BME280;11965;53.640;10.050;2023-01-26T00:03:55;102303.84;;;-1.30;100.00
23574;BME280;11965;53.640;10.050;2023-01-26T00:06:22;102297.34;;;-1.28;100.00
23574;BME280;11965;53.640;10.050;2023-01-26T00:08:51;102295.28;;;-1.23;100.00
23574;BME280;11965;53.640;10.050;2023-01-26T00:11:22;102295.97;;;-1.19;100.00
23574;BME280;11965;53.640;10.050;2023-01-26T00:13:51;102296.53;;;-1.13;100.00
23574;BME280;11965;53.640;10.050;2023-01-26T00:16:19;102287.91;;;-1.21;100.00
23574;BME280;11965;53.640;10.050;2023-01-26T00:18:45;102290.88;;;-1.25;100.00
23574;BME280;11965;53.640;10.050;2023-01-26T00:21:15;102286.25;;;-1.23;100.00
23574;BME280;11965;53.640;10.050;2023-01-26T00:23:42;102287.69;;;-1.34;100.00
23574;BME280;11965;53.640;10.050;2023-01-26T00:26:13;102282.88;;;-1.28;100.00
23574;BME280;11965;53.640;10.050;2023-01-26T00:28:42;102275.84;;;-1.33;100.00
23574;BME280;11965;53.640;10.050;2023-01-26T00:31:13;102276.63;;;-1.30;100.00
23574;BME280;11965;53.640;10.050;2023-01-26T00:33:40;102276.13;;;-1.21;100.00
23574;BME280;11965;53.640;10.050;2023-01-26T00:36:10;102284.91;;;-1.16;100.00
23574;BME280;11965;53.640;10.050;2023-01-26T00:38:37;102274.13;;;-1.18;100.00
23574;BME280;11965;53.640;10.050;2023-01-26T00:41:05;102272.34;;;-1.19;100.00
23574;BME280;11965;53.640;10.050;2023-01-26T00:43:32;102265.25;;;-1.21;100.00
23574;BME280;11965;53.640;10.050;2023-01-26T00:46:00;102262.88;;;-1.27;100.00
23574;BME280;11965;53.640;10.050;2023-01-26T00:48:27;102266.47;;;-1.27;100.00
23574;BME280;11965;53.640;10.050;2023-01-26T00:50:54;102271.19;;;-1.30;100.00
23574;BME280;11965;53.640;10.050;2023-01-26T00:53:21;102265.41;;;-1.24;100.00
23574;BME280;11965;53.640;10.050;2023-01-26T00:55:48;102255.56;;;-1.27;100.00
23574;BME280;11965;53.640;10.050;2023-01-26T00:58:15;102253.03;;;-1.30;100.00
23574;BME280;11965;53.640;10.050;2023-01-26T01:00:41;102244.81;;;-1.28;100.00
23574;BME280;11965;53.640;10.050;2023-01-26T01:03:10;102248.81;;;-1.36;100.00
23574;BME280;11965;53.640;10.050;2023-01-26T01:05:37;102246.53;;;-1.27;100.00
23574;BME280;11965;53.640;10.050;2023-01-26T01:08:04;102240.31;;;-1.29;100.00
23574;BME280;11965;53.640;10.050;2023-01-26T01:10:33;102254.00;;;-1.31;100.00
23574;BME280;11965;53.640;10.050;2023-01-26T01:13:00;102250.41;;;-1.31;100.00
23574;BME280;11965;53.640;10.050;2023-01-26T01:15:27;102251.75;;;-1.23;100.00
23574;BME280;11965;53.640;10.050;2023-01-26T01:17:54;102255.16;;;-1.19;100.00
23574;BME280;11965;53.640;10.050;2023-01-26T01:20:22;102244.72;;;-1.11;100.00
23574;BME280;11965;53.640;10.050;2023-01-26T01:22:50;102249.13;;;-1.08;100.00
23574;BME280;11965;53.640;10.050;2023-01-26T01:25:17;102235.53;;;-1.08;100.00
23574;BME280;11965;53.640;10.050;2023-01-26T01:27:44;102240.97;;;-1.08;100.00
23574;BME280;11965;53.640;10.050;2023-01-26T01:30:13;102240.34;;;-1.14;100.00
23574;BME280;11965;53.640;10.050;2023-01-26T01:32:40;102232.56;;;-1.04;100.00
23574;BME280;11965;53.640;10.050;2023-01-26T01:35:07;102233.56;;;-1.22;100.00
23574;BME280;11965;53.640;10.050;2023-01-26T01:37:36;102228.19;;;-1.24;100.00
23574;BME280;11965;53.640;10.050;2023-01-26T01:40:03;102228.19;;;-1.24;100.00
23574;BME280;11965;53.640;10.050;2023-01-26T01:42:32;102225.41;;;-1.22;100.00
23574;BME280;11965;53.640;10.050;2023-01-26T01:45:31;102231.72;;;-1.22;100.00
23574;BME280;11965;53.640;10.050;2023-01-26T01:48:04;102230.16;;;-1.26;100.00
23574;BME280;11965;53.640;10.050;2023-01-26T01:50:36;102227.34;;;-1.08;100.00
23574;BME280;11965;53.640;10.050;2023-01-26T01:53:10;102236.56;;;-1.11;100.00
23574;BME280;11965;53.640;10.050;2023-01-26T01:55:40;102231.72;;;-1.22;100.00
23574;BME280;11965;53.640;10.050;2023-01-26T01:58:08;102231.47;;;-1.17;100.00
23574;BME280;11965;53.640;10.050;2023-01-26T02:00:35;102233.50;;;-1.21;100.00
23574;BME280;11965;53.640;10.050;2023-01-26T02:03:05;102224.88;;;-1.13;100.00
23574;BME280;11965;53.640;10.050;2023-01-26T02:05:51;102224.59;;;-1.24;100.00
23574;BME280;11965;53.640;10.050;2023-01-26T02:08:24;102230.06;;;-1.24;100.00
23574;BME280;11965;53.640;10.050;2023-01-26T02:10:55;102230.16;;;-1.26;100.00
23574;BME280;11965;53.640;10.050;2023-01-26T02:13:26;102228.31;;;-1.25;100.00
23574;BME280;11965;53.640;10.050;2023-01-26T02:15:54;102230.84;;;-1.22;100.00
23574;BME280;11965;53.640;10.050;2023-01-26T02:18:21;102222.28;;;-1.15;100.00
23574;BME280;11965;53.640;10.050;2023-01-26T02:20:51;102219.72;;;-1.18;100.00
23574;BME280;11965;53.640;10.050;2023-01-26T02:23:30;102213.75;;;-1.08;100.00
23574;BME280;11965;53.640;10.050;2023-01-26T02:26:09;102220.50;;;-1.16;100.00
23574;BME280;11965;53.640;10.050;2023-01-26T02:28:38;102217.94;;;-1.19;100.00
23574;BME280;11965;53.640;10.050;2023-01-26T02:31:05;102221.66;;;-1.20;100.00
23574;BME280;11965;53.640;10.050;2023-01-26T02:33:33;102212.97;;;-1.11;100.00
23574;BME280;11965;53.640;10.050;2023-01-26T02:36:03;102210.75;;;-1.20;100.00
23574;BME280;11965;53.640;10.050;2023-01-26T02:38:38;102208.03;;;-1.20;100.00
23574;BME280;11965;53.640;10.050;2023-01-26T02:41:11;102202.25;;;-1.14;100.00
23574;BME280;11965;53.640;10.050;2023-01-26T02:43:59;102195.75;;;-1.11;100.00
23574;BME280;11965;53.640;10.050;2023-01-26T02:46:25;102181.47;;;-1.15;100.00
23574;BME280;11965;53.640;10.050;2023-01-26T02:48:52;102183.81;;;-1.08;100.00
23574;BME280;11965;53.640;10.050;2023-01-26T02:51:36;102182.16;;;-1.11;100.00
23574;BME280;11965;53.640;10.050;2023-01-26T02:54:04;102184.97;;;-1.13;100.00
23574;BME280;11965;53.640;10.050;2023-01-26T02:56:32;102179.81;;;-1.01;100.00
23574;BME280;11965;53.640;10.050;2023-01-26T02:58:58;102187.16;;;-1.03;100.00
23574;BME280;11965;53.640;10.050;2023-01-26T03:01:25;102183.75;;;-1.07;100.00
23574;BME280;11965;53.640;10.050;2023-01-26T03:03:52;102184.69;;;-1.08;100.00
23574;BME280;11965;53.640;10.050;2023-01-26T03:06:21;102186.03;;;-1.15;100.00
23574;BME280;11965;53.640;10.050;2023-01-26T03:08:48;102175.03;;;-1.14;100.00
23574;BME280;11965;53.640;10.050;2023-01-26T03:11:15;102182.16;;;-1.11;100.00
23574;BME280;11965;53.640;10.050;2023-01-26T03:13:43;102178.50;;;-1.10;100.00
23574;BME280;11965;53.640;10.050;2023-01-26T03:16:10;102179.06;;;-1.05;100.00
23574;BME280;11965;53.640;10.050;2023-01-26T03:18:38;102181.66;;;-1.02;100.00
23574;BME280;11965;53.640;10.050;2023-01-26T03:21:27;102181.28;;;-0.96;100.00
23574;BME280;11965;53.640;10.050;2023-01-26T03:24:13;102173.31;;;-0.99;100.00
23574;BME280;11965;53.640;10.050;2023-01-26T03:27:00;102175.22;;;-1.01;100.00
23574;BME280;11965;53.640;10.050;2023-01-26T03:29:46;102164.16;;;-0.98;100.00
23574;BME280;11965;53.640;10.050;2023-01-26T03:32:13;102166.28;;;-1.03;100.00
23574;BME280;11965;53.640;10.050;2023-01-26T03:34:44;102163.66;;;-0.88;100.00
23574;BME280;11965;53.640;10.050;2023-01-26T03:37:11;102161.44;;;-0.98;100.00
23574;BME280;11965;53.640;10.050;2023-01-26T03:39:52;102160.31;;;-1.09;100.00
23574;BME280;11965;53.640;10.050;2023-01-26T03:42:37;102160.13;;;-1.06;100.00
23574;BME280;11965;53.640;10.050;2023-01-26T03:45:22;102169.53;;;-1.12;100.00
23574;BME280;11965;53.640;10.050;2023-01-26T03:48:10;102158.09;;;-1.03;100.00
23574;BME280;11965;53.640;10.050;2023-01-26T03:50:55;102159.88;;;-1.02;100.00
23574;BME280;11965;53.640;10.050;2023-01-26T03:53:39;102153.09;;;-1.11;100.00
23574;BME280;11965;53.640;10.050;2023-01-26T03:56:24;102150.75;;;-1.01;100.00
23574;BME280;11965;53.640;10.050;2023-01-26T03:58:57;102148.63;;;-0.96;100.00
23574;BME280;11965;53.640;10.050;2023-01-26T04:01:35;102149.06;;;-1.03;100.00
23574;BME280;11965;53.640;10.050;2023-01-26T04:04:04;102155.81;;;-0.95;100.00
23574;BME280;11965;53.640;10.050;2023-01-26T04:06:50;102151.19;;;-0.93;100.00
23574;BME280;11965;53.640;10.050;2023-01-26T04:09:37;102154.34;;;-1.00;100.00
23574;BME280;11965;53.640;10.050;2023-01-26T04:12:05;102153.47;;;-1.01;100.00
23574;BME280;11965;53.640;10.050;2023-01-26T04:14:38;102148.19;;;-0.88;100.00
23574;BME280;11965;53.640;10.050;2023-01-26T04:17:27;102147.66;;;-0.95;100.00
23574;BME280;11965;53.640;10.050;2023-01-26T04:20:13;102151.34;;;-0.96;100.00
23574;BME280;11965;53.640;10.050;2023-01-26T04:22:57;102140.97;;;-1.05;100.00
23574;BME280;11965;53.640;10.050;2023-01-26T04:25:24;102150.47;;;-0.96;100.00
23574;BME280;11965;53.640;10.050;2023-01-26T04:27:51;102157.50;;;-0.92;100.00
23574;BME280;11965;53.640;10.050;2023-01-26T04:30:18;102156.53;;;-0.91;100.00
23574;BME280;11965;53.640;10.050;2023-01-26T04:32:46;102161.69;;;-0.86;100.00
23574;BME280;11965;53.640;10.050;2023-01-26T04:35:15;102152.16;;;-0.94;100.00
23574;BME280;11965;53.640;10.050;2023-01-26T04:37:42;102154.69;;;-0.91;100.00
23574;BME280;11965;53.640;10.050;2023-01-26T04:40:10;102149.06;;;-0.87;100.00
23574;BME280;11965;53.640;10.050;2023-01-26T04:42:37;102143.63;;;-0.87;100.00
23574;BME280;11965;53.640;10.050;2023-01-26T04:45:05;102140.03;;;-0.88;100.00
23574;BME280;11965;53.640;10.050;2023-01-26T04:47:34;102143.88;;;-0.92;100.00
23574;BME280;11965;53.640;10.050;2023-01-26T04:50:04;102134.84;;;-0.93;100.00
23574;BME280;11965;53.640;10.050;2023-01-26T04:52:31;102138.44;;;-0.76;100.00
23574;BME280;11965;53.640;10.050;2023-01-26T04:54:58;102134.28;;;-0.83;100.00
23574;BME280;11965;53.640;10.050;2023-01-26T04:57:25;102127.66;;;-0.78;100.00
23574;BME280;11965;53.640;10.050;2023-01-26T04:59:53;102130.53;;;-0.81;100.00
23574;BME280;11965;53.640;10.050;2023-01-26T05:02:20;102136.88;;;-0.80;100.00
23574;BME280;11965;53.640;10.050;2023-01-26T05:04:47;102135.19;;;-0.83;100.00
23574;BME280;11965;53.640;10.050;2023-01-26T05:07:15;102131.41;;;-0.80;100.00
23574;BME280;11965;53.640;10.050;2023-01-26T05:09:43;102134.75;;;-0.75;100.00
23574;BME280;11965;53.640;10.050;2023-01-26T05:12:31;102121.84;;;-0.87;100.00
23574;BME280;11965;53.640;10.050;2023-01-26T05:15:29;102122.66;;;-0.85;100.00
23574;BME280;11965;53.640;10.050;2023-01-26T05:18:10;102120.38;;;-0.93;100.00
23574;BME280;11965;53.640;10.050;2023-01-26T05:20:46;102123.97;;;-0.93;100.00
23574;BME280;11965;53.640;10.050;2023-01-26T05:23:17;102123.97;;;-0.93;100.00
23574;BME280;11965;53.640;10.050;2023-01-26T05:26:22;102118.44;;;-0.91;100.00
23574;BME280;11965;53.640;10.050;2023-01-26T05:28:55;102124.66;;;-0.89;100.00
23574;BME280;11965;53.640;10.050;2023-01-26T05:31:25;102116.41;;;-0.87;100.00
23574;BME280;11965;53.640;10.050;2023-01-26T05:33:52;102121.47;;;-0.81;100.00
23574;BME280;11965;53.640;10.050;2023-01-26T05:36:22;102122.47;;;-0.82;100.00
23574;BME280;11965;53.640;10.050;2023-01-26T05:38:50;102128.09;;;-0.85;100.00
23574;BME280;11965;53.640;10.050;2023-01-26T05:41:21;102118.06;;;-0.85;100.00
23574;BME280;11965;53.640;10.050;2023-01-26T05:44:07;102123.25;;;-0.80;100.00
23574;BME280;11965;53.640;10.050;2023-01-26T05:46:39;102120.78;;;-0.85;100.00
23574;BME280;11965;53.640;10.050;2023-01-26T05:49:06;102115.97;;;-0.80;100.00
23574;BME280;11965;53.640;10.050;2023-01-26T05:51:33;102124.91;;;-0.78;100.00
23574;BME280;11965;53.640;10.050;2023-01-26T05:54:02;102121.47;;;-0.81;100.00
23574;BME280;11965;53.640;10.050;2023-01-26T05:56:29;102120.44;;;-0.79;100.00
23574;BME280;11965;53.640;10.050;2023-01-26T05:59:00;102127.78;;;-0.81;100.00
23574;BME280;11965;53.640;10.050;2023-01-26T06:01:27;102120.97;;;-0.72;100.00
23574;BME280;11965;53.640;10.050;2023-01-26T06:03:58;102123.75;;;-0.74;100.00
23574;BME280;11965;53.640;10.050;2023-01-26T06:06:30;102127.66;;;-0.78;100.00
23574;BME280;11965;53.640;10.050;2023-01-26T06:09:16;102128.59;;;-0.79;100.00
23574;BME280;11965;53.640;10.050;2023-01-26T06:12:04;102132.09;;;-0.77;100.00
23574;BME280;11965;53.640;10.050;2023-01-26T06:14:46;102139.91;;;-0.71;100.00
23574;BME280;11965;53.640;10.050;2023-01-26T06:17:14;102129.84;;;-0.84;100.00
23574;BME280;11965;53.640;10.050;2023-01-26T06:19:41;102131.31;;;-0.79;100.00
23574;BME280;11965;53.640;10.050;2023-01-26T06:22:10;102135.09;;;-0.81;100.00
23574;BME280;11965;53.640;10.050;2023-01-26T06:24:40;102129.88;;;-0.70;100.00
23574;BME280;11965;53.640;10.050;2023-01-26T06:27:12;102130.94;;;-0.73;100.00
23574;BME280;11965;53.640;10.050;2023-01-26T06:29:41;102129.88;;;-0.70;100.00
23574;BME280;11965;53.640;10.050;2023-01-26T06:32:09;102139.22;;;-0.74;100.00
23574;BME280;11965;53.640;10.050;2023-01-26T06:34:37;102136.13;;;-0.68;100.00
23574;BME280;11965;53.640;10.050;2023-01-26T06:37:04;102138.66;;;-0.65;100.00
23574;BME280;11965;53.640;10.050;2023-01-26T06:39:35;102132.13;;;-0.47;100.00
23574;BME280;11965;53.640;10.050;2023-01-26T06:42:03;102138.44;;;-0.46;100.00
23574;BME280;11965;53.640;10.050;2023-01-26T06:44:30;102150.75;;;-0.39;100.00
23574;BME280;11965;53.640;10.050;2023-01-26T06:46:57;102146.72;;;-0.48;100.00
23574;BME280;11965;53.640;10.050;2023-01-26T06:49:25;102144.81;;;-0.46;100.00
23574;BME280;11965;53.640;10.050;2023-01-26T06:51:56;102136.78;;;-0.49;100.00
23574;BME280;11965;53.640;10.050;2023-01-26T06:54:37;102137.19;;;-0.40;100.00
23574;BME280;11965;53.640;10.050;2023-01-26T06:57:25;102140.38;;;-0.32;100.00
23574;BME280;11965;53.640;10.050;2023-01-26T07:00:11;102139.25;;;-0.44;100.00
23574;BME280;11965;53.640;10.050;2023-01-26T07:02:57;102141.38;;;-0.49;100.00
23574;BME280;11965;53.640;10.050;2023-01-26T07:05:24;102140.03;;;-0.42;100.00
23574;BME280;11965;53.640;10.050;2023-01-26T07:07:50;102139.44;;;-0.47;100.00
23574;BME280;11965;53.640;10.050;2023-01-26T07:10:18;102149.06;;;-0.41;100.00
23574;BME280;11965;53.640;10.050;2023-01-26T07:12:46;102145.50;;;-0.42;100.00
23574;BME280;11965;53.640;10.050;2023-01-26T07:15:13;102149.19;;;-0.43;100.00
23574;BME280;11965;53.640;10.050;2023-01-26T07:17:40;102154.03;;;-0.48;100.00
23574;BME280;11965;53.640;10.050;2023-01-26T07:20:08;102161.84;;;-0.42;100.00
23574;BME280;11965;53.640;10.050;2023-01-26T07:22:35;102156.13;;;-0.37;100.00
23574;BME280;11965;53.640;10.050;2023-01-26T07:25:02;102148.91;;;-0.38;100.00
23574;BME280;11965;53.640;10.050;2023-01-26T07:27:29;102144.69;;;-0.44;100.00
23574;BME280;11965;53.640;10.050;2023-01-26T07:29:57;102141.28;;;-0.48;100.00
23574;BME280;11965;53.640;10.050;2023-01-26T07:32:24;102150.94;;;-0.42;100.00
23574;BME280;11965;53.640;10.050;2023-01-26T07:34:51;102153.41;;;-0.37;100.00
23574;BME280;11965;53.640;10.050;2023-01-26T07:37:18;102163.50;;;-0.39;100.00
23574;BME280;11965;53.640;10.050;2023-01-26T07:39:45;102157.25;;;-0.41;100.00
23574;BME280;11965;53.640;10.050;2023-01-26T07:42:13;102154.88;;;-0.32;100.00
23574;BME280;11965;53.640;10.050;2023-01-26T07:44:58;102157.59;;;-0.32;100.00
23574;BME280;11965;53.640;10.050;2023-01-26T07:47:25;102161.56;;;-0.37;100.00
23574;BME280;11965;53.640;10.050;2023-01-26T07:49:52;102170.41;;;-0.34;100.00
23574;BME280;11965;53.640;10.050;2023-01-26T07:52:19;102164.28;;;-0.37;100.00
23574;BME280;11965;53.640;10.050;2023-01-26T07:54:45;102162.44;;;-0.37;100.00
23574;BME280;11965;53.640;10.050;2023-01-26T07:57:12;102156.41;;;-0.28;100.00
23574;BME280;11965;53.640;10.050;2023-01-26T07:59:39;102159.56;;;-0.19;100.00
23574;BME280;11965;53.640;10.050;2023-01-26T08:02:09;102156.16;;;-0.23;100.00
23574;BME280;11965;53.640;10.050;2023-01-26T08:04:36;102165.19;;;-0.23;100.00
23574;BME280;11965;53.640;10.050;2023-01-26T08:07:03;102160.53;;;-0.20;100.00
23574;BME280;11965;53.640;10.050;2023-01-26T08:09:30;102169.06;;;-0.11;100.00
23574;BME280;11965;53.640;10.050;2023-01-26T08:11:57;102167.47;;;-0.15;100.00
23574;BME280;11965;53.640;10.050;2023-01-26T08:14:24;102172.72;;;-0.12;100.00
23574;BME280;11965;53.640;10.050;2023-01-26T08:16:50;102167.78;;;-0.05;100.00
23574;BME280;11965;53.640;10.050;2023-01-26T08:19:19;102162.22;;;-0.04;100.00
23574;BME280;11965;53.640;10.050;2023-01-26T08:21:45;102169.25;;;0.01;100.00
23574;BME280;11965;53.640;10.050;2023-01-26T08:24:12;102171.88;;;0.02;100.00
23574;BME280;11965;53.640;10.050;2023-01-26T08:26:40;102169.06;;;0.04;100.00
23574;BME280;11965;53.640;10.050;2023-01-26T08:29:07;102179.41;;;0.13;100.00
23574;BME280;11965;53.640;10.050;2023-01-26T08:31:34;102176.06;;;0.08;100.00
23574;BME280;11965;53.640;10.050;2023-01-26T08:34:00;102177.84;;;0.09;100.00
23574;BME280;11965;53.640;10.050;2023-01-26T08:36:29;102184.56;;;0.03;100.00
23574;BME280;11965;53.640;10.050;2023-01-26T08:38:56;102180.38;;;-0.03;100.00
23574;BME280;11965;53.640;10.050;2023-01-26T08:41:23;102189.41;;;-0.02;100.00
23574;BME280;11965;53.640;10.050;2023-01-26T08:43:49;102190.34;;;-0.03;100.00
23574;BME280;11965;53.640;10.050;2023-01-26T08:46:17;102195.13;;;-0.07;100.00
23574;BME280;11965;53.640;10.050;2023-01-26T08:48:44;102188.22;;;0.02;100.00
23574;BME280;11965;53.640;10.050;2023-01-26T08:51:11;102186.97;;;0.08;100.00
23574;BME280;11965;53.640;10.050;2023-01-26T08:53:39;102179.78;;;0.07;100.00
23574;BME280;11965;53.640;10.050;2023-01-26T08:56:08;102183.19;;;0.10;100.00
23574;BME280;11965;53.640;10.050;2023-01-26T08:58:36;102179.72;;;0.22;100.00
23574;BME280;11965;53.640;10.050;2023-01-26T09:01:04;102181.94;;;0.16;100.00
23574;BME280;11965;53.640;10.050;2023-01-26T09:03:31;102192.16;;;0.12;100.00
23574;BME280;11965;53.640;10.050;2023-01-26T09:05:59;102180.38;;;0.12;100.00
23574;BME280;11965;53.640;10.050;2023-01-26T09:08:26;102180.00;;;0.18;100.00
23574;BME280;11965;53.640;10.050;2023-01-26T09:10:55;102180.41;;;0.26;100.00
23574;BME280;11965;53.640;10.050;2023-01-26T09:13:22;102176.53;;;0.30;100.00
23574;BME280;11965;53.640;10.050;2023-01-26T09:15:49;102178.25;;;0.31;100.00
23574;BME280;11965;53.640;10.050;2023-01-26T09:18:16;102175.81;;;0.27;100.00
23574;BME280;11965;53.640;10.050;2023-01-26T09:20:43;102179.34;;;0.29;100.00
23574;BME280;11965;53.640;10.050;2023-01-26T09:23:10;102180.72;;;0.50;100.00
23574;BME280;11965;53.640;10.050;2023-01-26T09:25:38;102176.22;;;0.63;100.00
23574;BME280;11965;53.640;10.050;2023-01-26T09:28:06;102177.97;;;0.64;100.00
23574;BME280;11965;53.640;10.050;2023-01-26T09:30:33;102175.19;;;0.52;100.00
23574;BME280;11965;53.640;10.050;2023-01-26T09:33:02;102177.31;;;0.61;100.00
23574;BME280;11965;53.640;10.050;2023-01-26T09:35:30;102167.56;;;0.57;100.00
23574;BME280;11965;53.640;10.050;2023-01-26T09:37:56;102160.91;;;0.75;100.00
23574;BME280;11965;53.640;10.050;2023-01-26T09:40:34;102152.53;;;0.64;100.00
23574;BME280;11965;53.640;10.050;2023-01-26T09:43:19;102158.00;;;0.64;100.00
23574;BME280;11965;53.640;10.050;2023-01-26T09:45:58;102156.56;;;0.73;100.00
23574;BME280;11965;53.640;10.050;2023-01-26T09:48:36;102148.53;;;0.70;100.00
23574;BME280;11965;53.640;10.050;2023-01-26T09:51:11;102152.03;;;0.86;100.00
23574;BME280;11965;53.640;10.050;2023-01-26T09:53:44;102155.16;;;0.94;100.00
23574;BME280;11965;53.640;10.050;2023-01-26T09:56:17;102150.78;;;0.92;100.00
23574;BME280;11965;53.640;10.050;2023-01-26T09:58:51;102162.47;;;0.94;100.00
23574;BME280;11965;53.640;10.050;2023-01-26T10:01:29;102162.94;;;1.00;100.00
23574;BME280;11965;53.640;10.050;2023-01-26T10:04:03;102170.28;;;1.00;100.00
23574;BME280;11965;53.640;10.050;2023-01-26T10:06:32;102159.81;;;1.06;100.00
23574;BME280;11965;53.640;10.050;2023-01-26T10:09:14;102155.91;;;0.96;100.00
23574;BME280;11965;53.640;10.050;2023-01-26T10:11:45;102155.72;;;0.99;100.00
23574;BME280;11965;53.640;10.050;2023-01-26T10:14:20;102155.16;;;0.94;100.00
23574;BME280;11965;53.640;10.050;2023-01-26T10:16:52;102149.72;;;0.94;100.00
23574;BME280;11965;53.640;10.050;2023-01-26T10:19:31;102158.19;;;0.90;100.00
23574;BME280;11965;53.640;10.050;2023-01-26T10:22:05;102160.22;;;0.86;100.00
23574;BME280;11965;53.640;10.050;2023-01-26T10:24:36;102162.16;;;0.98;100.00
23574;BME280;11965;53.640;10.050;2023-01-26T10:27:10;102143.13;;;0.97;100.00
23574;BME280;11965;53.640;10.050;2023-01-26T10:29:39;102149.22;;;0.87;100.00
23574;BME280;11965;53.640;10.050;2023-01-26T10:32:12;102142.22;;;0.83;100.00
23574;BME280;11965;53.640;10.050;2023-01-26T10:34:39;102131.50;;;1.07;100.00
23574;BME280;11965;53.640;10.050;2023-01-26T10:37:20;102136.06;;;0.94;100.00
23574;BME280;11965;53.640;10.050;2023-01-26T10:39:58;102128.75;;;0.95;100.00
23574;BME280;11965;53.640;10.050;2023-01-26T10:42:28;102132.28;;;1.09;100.00
23574;BME280;11965;53.640;10.050;2023-01-26T10:44:58;102122.44;;;1.07;100.00
23574;BME280;11965;53.640;10.050;2023-01-26T10:47:27;102123.88;;;1.27;100.00
23574;BME280;11965;53.640;10.050;2023-01-26T10:50:14;102130.00;;;1.30;100.00
23574;BME280;11965;53.640;10.050;2023-01-26T10:52:56;102136.09;;;1.21;100.00
23574;BME280;11965;53.640;10.050;2023-01-26T10:55:24;102142.22;;;1.25;100.00
23574;BME280;11965;53.640;10.050;2023-01-26T10:57:51;102140.91;;;1.30;100.00
23574;BME280;11965;53.640;10.050;2023-01-26T11:00:28;102134.78;;;1.54;100.00
23574;BME280;11965;53.640;10.050;2023-01-26T11:03:04;102147.94;;;1.35;100.00
23574;BME280;11965;53.640;10.050;2023-01-26T11:05:32;102145.41;;;1.59;100.00
23574;BME280;11965;53.640;10.050;2023-01-26T11:07:59;102139.88;;;1.73;100.00
23574;BME280;11965;53.640;10.050;2023-01-26T11:10:30;102141.06;;;1.82;100.00
23574;BME280;11965;53.640;10.050;2023-01-26T11:13:22;102144.00;;;1.66;100.00
23574;BME280;11965;53.640;10.050;2023-01-26T11:16:01;102142.75;;;1.57;100.00
23574;BME280;11965;53.640;10.050;2023-01-26T11:18:40;102135.56;;;1.56;100.00
23574;BME280;11965;53.640;10.050;2023-01-26T11:21:15;102127.94;;;1.74;100.00
23574;BME280;11965;53.640;10.050;2023-01-26T11:23:51;102133.41;;;1.74;100.00
23574;BME280;11965;53.640;10.050;2023-01-26T11:26:50;102128.06;;;1.72;100.00
23574;BME280;11965;53.640;10.050;2023-01-26T11:29:37;102121.69;;;1.59;100.00
23574;BME280;11965;53.640;10.050;2023-01-26T11:32:17;102116.66;;;1.66;100.00
23574;BME280;11965;53.640;10.050;2023-01-26T11:34:57;102122.78;;;1.57;100.00
23574;BME280;11965;53.640;10.050;2023-01-26T11:37:37;102115.47;;;1.70;100.00
23574;BME280;11965;53.640;10.050;2023-01-26T11:40:20;102119.81;;;2.12;100.00
23574;BME280;11965;53.640;10.050;2023-01-26T11:43:12;102109.69;;;1.87;100.00
23574;BME280;11965;53.640;10.050;2023-01-26T11:46:00;102115.63;;;1.94;100.00
23574;BME280;11965;53.640;10.050;2023-01-26T11:48:43;102116.50;;;1.94;100.00
23574;BME280;11965;53.640;10.050;2023-01-26T11:51:23;102115.53;;;2.08;100.00
23574;BME280;11965;53.640;10.050;2023-01-26T11:54:18;102106.75;;;1.77;100.00
23574;BME280;11965;53.640;10.050;2023-01-26T11:56:59;102097.78;;;1.75;100.00
23574;BME280;11965;53.640;10.050;2023-01-26T11:59:35;102096.91;;;1.75;100.00
23574;BME280;11965;53.640;10.050;2023-01-26T12:02:22;102097.56;;;2.04;100.00
23574;BME280;11965;53.640;10.050;2023-01-26T12:04:51;102094.31;;;1.99;100.00
23574;BME280;11965;53.640;10.050;2023-01-26T12:07:26;102105.47;;;2.21;100.00
23574;BME280;11965;53.640;10.050;2023-01-26T12:09:57;102093.41;;;2.11;100.00
23574;BME280;11965;53.640;10.050;2023-01-26T12:12:34;102084.22;;;2.25;100.00
23574;BME280;11965;53.640;10.050;2023-01-26T12:15:11;102088.94;;;2.10;100.00
23574;BME280;11965;53.640;10.050;2023-01-26T12:17:46;102086.63;;;2.17;100.00
23574;BME280;11965;53.640;10.050;2023-01-26T12:20:28;102092.00;;;2.18;100.00
23574;BME280;11965;53.640;10.050;2023-01-26T12:23:02;102082.94;;;2.18;100.00
23574;BME280;11965;53.640;10.050;2023-01-26T12:25:33;102081.38;;;2.27;100.00
23574;BME280;11965;53.640;10.050;2023-01-26T12:28:12;102074.38;;;2.35;100.00
23574;BME280;11965;53.640;10.050;2023-01-26T12:30:48;102064.53;;;2.33;100.00
23574;BME280;11965;53.640;10.050;2023-01-26T12:33:18;102075.16;;;2.12;100.00
23574;BME280;11965;53.640;10.050;2023-01-26T12:36:08;102054.16;;;2.12;100.00
23574;BME280;11965;53.640;10.050;2023-01-26T12:38:52;102059.81;;;2.22;100.00
23574;BME280;11965;53.640;10.050;2023-01-26T12:41:34;102064.66;;;2.31;100.00
23574;BME280;11965;53.640;10.050;2023-01-26T12:44:19;102047.25;;;2.07;100.00
23574;BME280;11965;53.640;10.050;2023-01-26T12:46:55;102049.22;;;2.17;100.00
23574;BME280;11965;53.640;10.050;2023-01-26T12:49:30;102055.44;;;2.07;100.00
23574;BME280;11965;53.640;10.050;2023-01-26T12:52:05;102053.25;;;2.12;100.00
23574;BME280;11965;53.640;10.050;2023-01-26T12:54:42;102047.88;;;2.36;100.00
23574;BME280;11965;53.640;10.050;2023-01-26T12:57:15;102053.56;;;2.33;100.00
23574;BME280;11965;53.640;10.050;2023-01-26T12:59:43;102060.38;;;2.14;100.00